createdAt,value
2023-04-15T00:00:11.425Z,24.27
2023-04-15T00:02:44.444Z,23.77
2023-04-15T00:05:14.949Z,22.75
2023-04-15T00:07:44.064Z,24.35
2023-04-15T00:10:13.464Z,25.63
2023-04-15T00:12:46.505Z,25.08
2023-04-15T00:15:15.498Z,27.80
2023-04-15T00:17:44.854Z,27.23
2023-04-15T00:20:15.758Z,22.08
2023-04-15T00:22:44.742Z,24.35
2023-04-15T00:25:13.718Z,24.55
2023-04-15T00:27:43.057Z,26.17
2023-04-15T00:30:12.729Z,27.23
2023-04-15T00:32:42.455Z,29.92
2023-04-15T00:35:11.616Z,28.65
2023-04-15T00:37:44.147Z,25.95
2023-04-15T00:40:15.828Z,27.30
2023-04-15T00:42:44.814Z,28.23
2023-04-15T00:45:14.606Z,30.08
2023-04-15T00:47:45.000Z,29.05
2023-04-15T00:50:14.541Z,28.98
2023-04-15T00:52:48.766Z,29.58
2023-04-15T00:55:19.465Z,32.28
2023-04-15T00:57:48.901Z,27.65
2023-04-15T01:00:18.803Z,25.30
2023-04-15T01:02:48.780Z,33.33
2023-04-15T01:05:18.719Z,28.08
2023-04-15T01:07:49.433Z,26.13
2023-04-15T01:10:18.753Z,32.13
2023-04-15T01:12:48.197Z,30.83
2023-04-15T01:15:17.788Z,31.40
2023-04-15T01:17:47.462Z,27.08
2023-04-15T01:20:17.069Z,31.35
2023-04-15T01:22:46.666Z,31.15
2023-04-15T01:25:21.746Z,29.45
2023-04-15T01:27:52.187Z,34.42
2023-04-15T01:30:21.915Z,31.75
2023-04-15T01:32:51.167Z,29.23
2023-04-15T01:35:21.716Z,30.55
2023-04-15T01:37:51.388Z,30.05
2023-04-15T01:40:20.587Z,32.42
2023-04-15T01:42:49.703Z,31.92
2023-04-15T01:45:20.388Z,30.10
2023-04-15T01:47:49.450Z,32.13
2023-04-15T01:50:19.150Z,31.95
2023-04-15T01:52:48.468Z,31.48
2023-04-15T01:55:17.462Z,34.22
2023-04-15T01:57:47.895Z,31.73
2023-04-15T02:00:17.796Z,33.30
2023-04-15T02:02:48.308Z,34.20
2023-04-15T02:05:17.525Z,34.00
2023-04-15T02:07:50.357Z,33.13
2023-04-15T02:10:19.579Z,30.40
2023-04-15T02:12:48.598Z,31.88
2023-04-15T02:15:17.862Z,31.83
2023-04-15T02:17:51.192Z,32.70
2023-04-15T02:20:21.251Z,32.42
2023-04-15T02:22:50.758Z,29.75
2023-04-15T02:25:20.608Z,30.38
2023-04-15T02:27:49.680Z,30.42
2023-04-15T02:30:19.578Z,29.58
2023-04-15T02:32:50.165Z,31.55
2023-04-15T02:35:20.071Z,31.95
2023-04-15T02:37:49.177Z,33.15
2023-04-15T02:40:19.946Z,31.92
2023-04-15T02:42:49.182Z,29.95
2023-04-15T02:45:23.734Z,31.10
2023-04-15T02:47:54.196Z,33.55
2023-04-15T02:50:24.248Z,33.15
2023-04-15T02:52:53.355Z,30.73
2023-04-15T02:55:22.853Z,32.50
2023-04-15T02:57:52.162Z,33.45
2023-04-15T03:00:21.743Z,32.45
2023-04-15T03:02:56.526Z,30.00
2023-04-15T03:05:27.664Z,33.85
2023-04-15T03:07:56.648Z,27.42
2023-04-15T03:10:25.677Z,33.20
2023-04-15T03:12:54.696Z,32.42
2023-04-15T03:15:25.619Z,28.27
2023-04-15T03:17:56.138Z,29.60
2023-04-15T03:20:26.623Z,32.85
2023-04-15T03:22:55.807Z,28.25
2023-04-15T03:25:26.134Z,33.53
2023-04-15T03:27:55.133Z,32.50
2023-04-15T03:30:50.406Z,29.77
2023-04-15T03:33:19.592Z,28.75
2023-04-15T03:35:49.972Z,27.70
2023-04-15T03:38:19.153Z,29.60
2023-04-15T03:40:49.146Z,26.95
2023-04-15T03:43:18.174Z,27.55
2023-04-15T03:45:47.219Z,27.40
2023-04-15T03:48:18.185Z,25.85
2023-04-15T03:50:49.503Z,29.60
2023-04-15T03:53:18.806Z,27.50
2023-04-15T03:55:47.841Z,25.02
2023-04-15T03:58:16.868Z,28.92
2023-04-15T04:00:45.949Z,26.80
2023-04-15T04:03:15.173Z,26.52
2023-04-15T04:05:44.649Z,29.25
2023-04-15T04:08:16.441Z,25.33
2023-04-15T04:10:45.509Z,26.13
2023-04-15T04:13:14.478Z,28.00
2023-04-15T04:15:43.620Z,28.08
2023-04-15T04:18:12.665Z,25.90
2023-04-15T04:20:41.893Z,26.33
2023-04-15T04:23:11.118Z,27.55
2023-04-15T04:25:41.594Z,26.80
2023-04-15T04:28:11.760Z,23.10
2023-04-15T04:30:41.185Z,24.30
2023-04-15T04:33:10.260Z,24.75
2023-04-15T04:35:39.145Z,23.92
2023-04-15T04:38:08.160Z,23.00
2023-04-15T04:40:37.148Z,23.27
2023-04-15T04:43:07.530Z,24.83
2023-04-15T04:45:36.576Z,26.25
2023-04-15T04:48:07.330Z,23.92
2023-04-15T04:50:36.736Z,23.02
2023-04-15T04:53:06.086Z,24.85
2023-04-15T04:55:36.986Z,23.98
2023-04-15T04:58:07.407Z,23.38
2023-04-15T05:00:37.982Z,24.70
2023-04-15T05:03:07.336Z,22.70
2023-04-15T05:05:37.163Z,25.73
2023-04-15T05:08:06.703Z,22.38
2023-04-15T05:10:36.018Z,23.40
2023-04-15T05:13:06.605Z,22.67
2023-04-15T05:15:37.136Z,23.40
2023-04-15T05:18:06.677Z,24.10
2023-04-15T05:20:35.725Z,24.45
2023-04-15T05:23:04.781Z,26.17
2023-04-15T05:25:33.769Z,23.83
2023-04-15T05:28:02.749Z,25.38
2023-04-15T05:30:33.244Z,25.17
2023-04-15T05:33:02.349Z,27.85
2023-04-15T05:35:31.390Z,25.83
2023-04-15T05:38:00.728Z,25.90
2023-04-15T05:40:29.749Z,26.42
2023-04-15T05:42:58.751Z,23.08
2023-04-15T05:45:27.843Z,24.83
2023-04-15T05:47:58.293Z,25.45
2023-04-15T05:50:27.217Z,24.27
2023-04-15T05:52:56.379Z,23.02
2023-04-15T05:55:25.839Z,22.77
2023-04-15T05:57:54.895Z,20.90
2023-04-15T06:00:23.952Z,21.98
2023-04-15T06:02:53.308Z,30.10
2023-04-15T06:05:24.272Z,25.25
2023-04-15T06:07:53.266Z,34.35
2023-04-15T06:10:22.207Z,24.73
2023-04-15T06:12:51.286Z,20.83
2023-04-15T06:15:20.346Z,19.90
2023-04-15T06:17:49.350Z,23.30
2023-04-15T06:20:18.485Z,22.30
2023-04-15T06:22:48.950Z,18.73
2023-04-15T06:25:18.243Z,18.30
2023-04-15T06:27:47.546Z,21.13
2023-04-15T06:30:16.718Z,18.37
2023-04-15T06:32:46.424Z,18.77
2023-04-15T06:35:16.149Z,19.13
2023-04-15T06:37:45.270Z,18.83
2023-04-15T06:40:16.200Z,15.37
2023-04-15T06:42:45.280Z,17.40
2023-04-15T06:45:14.512Z,17.53
2023-04-15T06:47:43.694Z,17.52
2023-04-15T06:50:12.911Z,20.67
2023-04-15T06:52:42.472Z,17.00
2023-04-15T06:55:11.742Z,18.92
2023-04-15T06:57:42.084Z,17.97
2023-04-15T07:00:12.431Z,16.73
2023-04-15T07:02:41.697Z,15.93
2023-04-15T07:05:11.437Z,15.30
2023-04-15T07:07:40.593Z,13.90
2023-04-15T07:10:12.111Z,15.98
2023-04-15T07:12:42.597Z,16.30
2023-04-15T07:15:12.364Z,15.80
2023-04-15T07:17:43.337Z,16.63
2023-04-15T07:20:14.143Z,14.43
2023-04-15T07:22:43.673Z,14.85
2023-04-15T07:25:12.667Z,15.30
2023-04-15T07:27:43.181Z,15.15
2023-04-15T07:30:12.852Z,14.60
2023-04-15T07:32:42.303Z,15.27
2023-04-15T07:35:11.921Z,15.05
2023-04-15T07:37:41.686Z,16.10
2023-04-15T07:40:12.052Z,15.50
2023-04-15T07:42:42.544Z,15.23
2023-04-15T07:45:12.961Z,13.10
2023-04-15T07:47:42.701Z,14.13
2023-04-15T07:50:12.403Z,15.80
2023-04-15T07:52:45.862Z,16.90
2023-04-15T07:55:15.400Z,15.32
2023-04-15T07:57:47.402Z,15.03
2023-04-15T08:00:17.263Z,16.27
2023-04-15T08:02:47.100Z,15.47
2023-04-15T08:05:16.433Z,15.50
2023-04-15T08:07:46.217Z,14.38
2023-04-15T08:10:15.572Z,15.33
2023-04-15T08:12:49.249Z,15.53
2023-04-15T08:15:18.489Z,16.80
2023-04-15T08:17:51.525Z,14.93
2023-04-15T08:20:20.757Z,15.97
2023-04-15T08:22:52.085Z,16.93
2023-04-15T08:25:21.690Z,17.23
2023-04-15T08:27:52.408Z,16.40
2023-04-15T08:30:21.743Z,16.58
2023-04-15T08:32:51.833Z,14.00
2023-04-15T08:35:21.315Z,15.37
2023-04-15T08:37:50.278Z,16.13
2023-04-15T08:40:19.414Z,16.57
2023-04-15T08:42:54.626Z,17.80
2023-04-15T08:45:24.569Z,14.63
2023-04-15T08:47:57.743Z,16.63
2023-04-15T08:50:27.890Z,15.63
2023-04-15T08:52:57.590Z,17.27
2023-04-15T08:55:29.928Z,17.13
2023-04-15T08:58:01.008Z,16.60
2023-04-15T09:00:30.471Z,17.07
2023-04-15T09:03:00.522Z,17.55
2023-04-15T09:05:32.495Z,17.73
2023-04-15T09:08:01.711Z,17.90
2023-04-15T09:10:31.288Z,16.77
2023-04-15T09:13:02.147Z,17.10
2023-04-15T09:15:32.462Z,16.07
2023-04-15T09:18:01.539Z,17.27
2023-04-15T09:20:30.776Z,17.57
2023-04-15T09:22:59.886Z,17.60
2023-04-15T09:25:34.836Z,16.93
2023-04-15T09:28:06.805Z,16.03
2023-04-15T09:30:35.989Z,15.60
2023-04-15T09:33:08.444Z,16.47
2023-04-15T09:35:38.005Z,15.70
2023-04-15T09:38:08.514Z,16.20
2023-04-15T09:40:39.349Z,16.30
2023-04-15T09:43:13.141Z,16.70
2023-04-15T09:45:50.398Z,16.10
2023-04-15T09:48:22.177Z,15.43
2023-04-15T09:50:53.674Z,15.53
2023-04-15T09:53:23.919Z,15.33
2023-04-15T09:55:54.641Z,15.10
2023-04-15T09:58:26.715Z,22.13
2023-04-15T10:00:57.572Z,15.30
2023-04-15T10:03:28.352Z,17.07
2023-04-15T10:06:00.181Z,17.67
2023-04-15T10:08:30.620Z,16.80
2023-04-15T10:11:00.274Z,15.53
2023-04-15T10:13:36.123Z,17.20
2023-04-15T10:16:08.644Z,16.93
2023-04-15T10:18:40.151Z,18.00
2023-04-15T10:21:10.356Z,15.53
2023-04-15T10:23:40.916Z,17.20
2023-04-15T10:26:12.425Z,17.10
2023-04-15T10:28:43.236Z,17.70
2023-04-15T10:31:15.069Z,17.67
2023-04-15T10:33:45.651Z,17.30
2023-04-15T10:36:15.514Z,16.03
2023-04-15T10:38:45.866Z,15.93
2023-04-15T10:41:19.538Z,17.03
2023-04-15T10:43:56.028Z,15.73
2023-04-15T10:46:35.773Z,16.17
2023-04-15T10:49:11.110Z,15.43
2023-04-15T10:51:42.677Z,14.53
2023-04-15T10:54:16.288Z,16.97
2023-04-15T10:56:46.170Z,18.13
2023-04-15T10:59:18.163Z,15.73
2023-04-15T11:02:00.443Z,15.53
2023-04-15T11:04:58.652Z,16.07
2023-04-15T11:07:51.472Z,16.10
2023-04-15T11:10:54.955Z,15.80
2023-04-15T11:13:27.384Z,15.65
2023-04-15T11:16:02.771Z,15.50
2023-04-15T11:18:34.543Z,16.00
2023-04-15T11:21:05.948Z,15.50
2023-04-15T11:23:40.046Z,14.30
2023-04-15T11:26:12.413Z,17.50
2023-04-15T11:28:42.691Z,15.23
2023-04-15T11:31:14.865Z,14.43
2023-04-15T11:33:48.342Z,15.67
2023-04-15T11:36:17.933Z,15.83
2023-04-15T11:38:48.798Z,15.50
2023-04-15T11:41:21.447Z,15.60
2023-04-15T11:43:50.819Z,15.27
2023-04-15T11:46:23.245Z,14.73
2023-04-15T11:48:52.311Z,15.20
2023-04-15T11:51:22.800Z,14.27
2023-04-15T11:53:54.932Z,15.57
2023-04-15T11:56:25.628Z,14.67
2023-04-15T11:58:57.217Z,14.90
2023-04-15T12:01:35.331Z,14.60
2023-04-15T12:04:12.177Z,14.37
2023-04-15T12:06:41.783Z,14.27
2023-04-15T12:09:12.364Z,15.97
2023-04-15T12:11:44.465Z,14.87
2023-04-15T12:14:29.553Z,15.30
2023-04-15T12:17:03.439Z,16.57
2023-04-15T12:19:36.480Z,13.60
2023-04-15T12:22:07.002Z,13.93
2023-04-15T12:24:37.333Z,15.40
2023-04-15T12:27:08.705Z,13.90
2023-04-15T12:29:40.328Z,14.82
2023-04-15T12:32:12.394Z,14.80
2023-04-15T12:34:42.895Z,15.10
2023-04-15T12:37:13.258Z,14.90
2023-04-15T12:39:44.587Z,16.20
2023-04-15T12:42:14.118Z,14.33
2023-04-15T12:44:43.403Z,14.43
2023-04-15T12:47:15.842Z,15.97
2023-04-15T12:49:44.912Z,16.60
2023-04-15T12:52:14.112Z,15.27
2023-04-15T12:54:43.230Z,15.20
2023-04-15T12:57:12.499Z,15.53
2023-04-15T12:59:41.513Z,13.90
2023-04-15T13:02:10.586Z,16.03
2023-04-15T13:04:41.183Z,14.63
2023-04-15T13:07:10.558Z,13.80
2023-04-15T13:09:40.082Z,13.73
2023-04-15T13:12:09.484Z,15.47
2023-04-15T13:14:38.437Z,12.67
2023-04-15T13:17:10.337Z,15.17
2023-04-15T13:19:41.783Z,14.57
2023-04-15T13:22:11.632Z,15.50
2023-04-15T13:24:41.033Z,12.50
2023-04-15T13:27:10.028Z,15.70
2023-04-15T13:29:40.397Z,13.07
2023-04-15T13:32:09.490Z,11.87
2023-04-15T13:34:38.534Z,13.83
2023-04-15T13:37:10.688Z,13.67
2023-04-15T13:39:39.767Z,13.57
2023-04-15T13:42:08.951Z,13.40
2023-04-15T13:44:38.598Z,14.63
2023-04-15T13:47:07.615Z,15.17
2023-04-15T13:49:36.635Z,13.67
2023-04-15T13:52:05.740Z,15.60
2023-04-15T13:54:37.805Z,14.77
2023-04-15T13:57:07.388Z,15.17
2023-04-15T13:59:36.703Z,13.60
2023-04-15T14:02:05.868Z,13.63
2023-04-15T14:04:34.997Z,24.97
2023-04-15T14:07:05.298Z,22.70
2023-04-15T14:09:36.196Z,24.10
2023-04-15T14:12:05.917Z,23.60
2023-04-15T14:14:35.096Z,72.30
2023-04-15T14:17:05.539Z,25.43
2023-04-15T14:19:34.748Z,18.70
2023-04-15T14:22:03.872Z,30.03
2023-04-15T14:24:33.081Z,21.33
2023-04-15T14:27:03.530Z,18.37
2023-04-15T14:29:32.517Z,18.27
2023-04-15T14:32:11.012Z,18.80
2023-04-15T14:34:41.893Z,20.70
2023-04-15T14:37:10.876Z,14.00
2023-04-15T14:39:39.862Z,21.73
2023-04-15T14:42:10.417Z,12.57
2023-04-15T14:44:39.462Z,13.90
2023-04-15T14:47:08.481Z,14.63
2023-04-15T14:49:37.550Z,12.03
2023-04-15T14:52:06.560Z,12.97
2023-04-15T14:54:35.663Z,13.17
2023-04-15T14:57:04.684Z,13.43
2023-04-15T14:59:35.209Z,13.10
2023-04-15T15:02:04.370Z,13.00
2023-04-15T15:04:33.783Z,11.40
2023-04-15T15:07:02.949Z,11.03
2023-04-15T15:09:34.473Z,14.97
2023-04-15T15:12:04.103Z,14.80
2023-04-15T15:14:34.552Z,13.73
2023-04-15T15:17:03.686Z,15.77
2023-04-15T15:19:32.687Z,14.50
2023-04-15T15:22:01.758Z,18.33
2023-04-15T15:24:30.867Z,16.70
2023-04-15T15:27:02.065Z,14.17
2023-04-15T15:29:31.130Z,15.67
2023-04-15T15:32:01.663Z,18.97
2023-04-15T15:34:30.713Z,17.97
2023-04-15T15:36:59.768Z,16.27
2023-04-15T15:39:28.923Z,15.23
2023-04-15T15:41:57.992Z,14.43
2023-04-15T15:44:27.057Z,10.40
2023-04-15T15:46:56.274Z,12.10
2023-04-15T15:49:28.281Z,11.40
2023-04-15T15:51:58.318Z,10.90
2023-04-15T15:54:27.377Z,10.13
2023-04-15T15:56:57.646Z,9.07
2023-04-15T15:59:27.233Z,9.03
2023-04-15T16:01:59.553Z,9.93
2023-04-15T16:04:57.342Z,9.10
2023-04-15T16:07:33.212Z,8.87
2023-04-15T16:10:15.415Z,9.83
2023-04-15T16:13:05.368Z,10.37
2023-04-15T16:15:58.344Z,8.63
2023-04-15T16:18:35.476Z,9.73
2023-04-15T16:21:23.335Z,9.93
2023-04-15T16:24:06.085Z,9.40
2023-04-15T16:26:39.497Z,10.33
2023-04-15T16:29:20.829Z,11.17
2023-04-15T16:31:52.916Z,8.23
2023-04-15T16:34:43.355Z,7.63
2023-04-15T16:37:20.698Z,10.90
2023-04-15T16:39:55.528Z,8.27
2023-04-15T16:42:27.669Z,8.90
2023-04-15T16:45:22.484Z,9.17
2023-04-15T16:47:57.059Z,10.87
2023-04-15T16:50:26.871Z,9.13
2023-04-15T16:53:10.987Z,9.00
2023-04-15T16:55:53.171Z,9.73
2023-04-15T17:02:35.329Z,8.03
2023-04-15T17:05:06.019Z,8.97
2023-04-15T17:07:37.404Z,7.93
2023-04-15T17:10:09.453Z,9.20
2023-04-15T17:12:39.681Z,8.20
2023-04-15T17:15:10.722Z,9.67
2023-04-15T17:17:40.487Z,9.20
2023-04-15T17:20:12.997Z,6.93
2023-04-15T17:22:42.711Z,10.07
2023-04-15T17:25:14.618Z,8.47
2023-04-15T17:27:44.118Z,10.10
2023-04-15T17:30:13.602Z,9.23
2023-04-15T17:32:43.034Z,8.20
2023-04-15T17:35:12.622Z,10.07
2023-04-15T17:37:42.006Z,9.57
2023-04-15T17:40:14.991Z,8.03
2023-04-15T17:42:44.294Z,10.10
2023-04-15T17:45:14.009Z,11.23
2023-04-15T17:47:43.247Z,9.30
2023-04-15T17:50:13.222Z,8.90
2023-04-15T17:52:42.818Z,9.80
2023-04-15T17:55:14.065Z,9.57
2023-04-15T17:57:43.406Z,12.07
2023-04-15T18:00:14.852Z,10.70
2023-04-15T18:02:46.342Z,12.13
2023-04-15T18:05:21.379Z,11.80
2023-04-15T18:07:54.323Z,11.07
2023-04-15T18:10:29.627Z,10.60
2023-04-15T18:13:06.556Z,11.60
2023-04-15T18:15:39.640Z,11.57
2023-04-15T18:18:10.360Z,11.80
2023-04-15T18:20:42.575Z,12.13
2023-04-15T18:23:13.041Z,12.03
2023-04-15T18:25:45.170Z,11.50
2023-04-15T18:28:18.168Z,13.47
2023-04-15T18:30:48.140Z,13.83
2023-04-15T18:33:17.492Z,11.30
2023-04-15T18:35:49.362Z,14.40
2023-04-15T18:38:19.741Z,13.47
2023-04-15T18:40:57.727Z,12.67
2023-04-15T18:43:27.058Z,12.93
2023-04-15T18:45:56.633Z,14.00
2023-04-15T18:48:28.492Z,13.10
2023-04-15T18:50:59.935Z,13.60
2023-04-15T18:53:32.457Z,14.67
2023-04-15T18:56:04.067Z,14.30
2023-04-15T18:59:21.118Z,15.53
2023-04-15T19:01:24.527Z,17.70
2023-04-15T19:03:57.570Z,18.13
2023-04-15T19:06:27.413Z,15.43
2023-04-15T19:09:01.053Z,17.40
2023-04-15T19:11:43.148Z,16.00
2023-04-15T19:14:18.674Z,17.40
2023-04-15T19:17:16.237Z,15.90
2023-04-15T19:19:45.533Z,17.90
2023-04-15T19:22:19.560Z,18.70
2023-04-15T19:24:48.866Z,18.60
2023-04-15T19:27:19.396Z,19.00
2023-04-15T19:29:51.486Z,19.00
2023-04-15T19:32:27.051Z,20.95
2023-04-15T19:34:56.287Z,20.13
2023-04-15T19:37:27.687Z,19.50
2023-04-15T19:39:57.011Z,19.77
2023-04-15T19:42:27.883Z,23.43
2023-04-15T19:44:57.078Z,20.20
2023-04-15T19:47:26.439Z,20.20
2023-04-15T19:49:55.633Z,22.63
2023-04-15T19:52:24.745Z,22.70
2023-04-15T19:54:53.898Z,22.52
2023-04-15T19:57:23.076Z,21.90
2023-04-15T19:59:56.242Z,22.05
2023-04-15T20:02:25.557Z,20.85
2023-04-15T20:04:54.815Z,21.77
2023-04-15T20:07:23.893Z,20.90
2023-04-15T20:09:53.080Z,22.77
2023-04-15T20:12:50.257Z,22.40
2023-04-15T20:15:17.396Z,21.43
2023-04-15T20:17:51.510Z,20.57
2023-04-15T20:20:23.827Z,21.07
2023-04-15T20:22:53.847Z,21.42
2023-04-15T20:25:23.185Z,20.43
2023-04-15T20:28:00.969Z,22.90
2023-04-15T20:30:31.918Z,21.77
2023-04-15T20:33:01.160Z,19.93
2023-04-15T20:35:31.136Z,19.08
2023-04-15T20:38:01.520Z,22.63
2023-04-15T20:40:34.211Z,19.75
2023-04-15T20:43:03.526Z,21.55
2023-04-15T20:45:37.444Z,19.60
2023-04-15T20:48:07.292Z,23.00
2023-04-15T20:50:36.909Z,21.00
2023-04-15T20:53:06.244Z,21.90
2023-04-15T20:55:35.339Z,20.92
2023-04-15T20:58:06.445Z,19.40
2023-04-15T21:00:40.160Z,22.47
2023-04-15T21:03:09.462Z,22.03
2023-04-15T21:05:38.603Z,20.73
2023-04-15T21:08:08.266Z,21.33
2023-04-15T21:10:37.414Z,21.90
2023-04-15T21:13:06.837Z,22.10
2023-04-15T21:15:37.339Z,21.93
2023-04-15T21:18:06.504Z,20.80
2023-04-15T21:20:35.834Z,20.67
2023-04-15T21:23:04.936Z,24.03
2023-04-15T21:25:33.965Z,20.75
2023-04-15T21:28:03.773Z,22.50
2023-04-15T21:30:32.835Z,20.40
2023-04-15T21:33:03.286Z,23.50
2023-04-15T21:35:33.377Z,22.63
2023-04-15T21:38:02.601Z,23.87
2023-04-15T21:40:31.648Z,23.07
2023-04-15T21:43:00.843Z,21.40
2023-04-15T21:45:29.910Z,20.93
2023-04-15T21:48:07.372Z,18.60
2023-04-15T21:50:40.126Z,20.67
2023-04-15T21:53:10.140Z,20.03
2023-04-15T21:55:39.468Z,20.93
2023-04-15T21:58:33.061Z,20.93
2023-04-15T22:01:03.100Z,20.30
2023-04-15T22:03:34.536Z,21.43
2023-04-15T22:06:06.178Z,18.50
2023-04-15T22:08:44.595Z,19.73
2023-04-15T22:11:27.420Z,22.17
2023-04-15T22:13:57.915Z,21.47
2023-04-15T22:16:27.977Z,21.20
2023-04-15T22:18:59.240Z,24.13
2023-04-15T22:21:30.019Z,22.13
2023-04-15T22:24:32.237Z,25.50
2023-04-15T22:26:48.782Z,25.20
2023-04-15T22:29:18.044Z,22.80
2023-04-15T22:31:47.485Z,24.73
2023-04-15T22:34:21.521Z,24.95
2023-04-15T22:36:53.465Z,25.50
2023-04-15T22:39:25.400Z,23.10
2023-04-15T22:41:57.021Z,22.63
2023-04-15T22:44:27.132Z,22.07
2023-04-15T22:46:57.765Z,23.70
2023-04-15T22:49:27.507Z,24.90
2023-04-15T22:51:58.320Z,23.10
2023-04-15T22:54:27.610Z,23.55
2023-04-15T22:56:57.314Z,23.55
2023-04-15T22:59:26.775Z,24.20
2023-04-15T23:01:57.969Z,24.87
2023-04-15T23:04:28.007Z,24.07
2023-04-15T23:06:59.018Z,24.07
2023-04-15T23:09:28.529Z,25.70
2023-04-15T23:11:58.012Z,25.67
2023-04-15T23:14:28.300Z,25.27
2023-04-15T23:16:58.324Z,25.63
2023-04-15T23:19:27.616Z,24.73
2023-04-15T23:21:58.223Z,25.23
2023-04-15T23:24:27.458Z,24.37
2023-04-15T23:26:57.425Z,25.15
2023-04-15T23:29:26.750Z,23.67
2023-04-15T23:31:56.174Z,25.60
2023-04-15T23:34:25.725Z,25.03
2023-04-15T23:36:55.059Z,25.40
2023-04-15T23:39:25.918Z,25.20
2023-04-15T23:41:55.274Z,25.73
2023-04-15T23:44:24.572Z,27.77
2023-04-15T23:46:53.928Z,24.57
2023-04-15T23:49:23.353Z,25.73
2023-04-15T23:51:52.617Z,27.33
2023-04-15T23:54:22.545Z,25.40
2023-04-15T23:56:53.744Z,25.50
2023-04-15T23:59:22.945Z,26.20
